sensor_id;sensor_type;location;lat;lon;timestamp;pressure;altitude;pressure_sealevel;temperature;humidity
61697;BME280;47610;52.252;20.922;2023-05-11T00:01:07;100785.85;;;10.69;48.24
61697;BME280;47610;52.252;20.922;2023-05-11T00:06:10;100787.77;;;10.67;48.30
61697;BME280;47610;52.252;20.922;2023-05-11T00:11:13;100780.81;;;10.63;48.10
61697;BME280;47610;52.252;20.922;2023-05-11T00:16:16;100775.67;;;10.61;47.64
61697;BME280;47610;52.252;20.922;2023-05-11T00:21:20;100775.84;;;10.60;47.71
61697;BME280;47610;52.252;20.922;2023-05-11T00:26:23;100773.00;;;10.57;47.40
61697;BME280;47610;52.252;20.922;2023-05-11T00:31:26;100780.88;;;10.55;47.19
61697;BME280;47610;52.252;20.922;2023-05-11T00:36:29;100774.19;;;10.52;47.07
61697;BME280;47610;52.252;20.922;2023-05-11T00:41:33;100779.90;;;10.50;47.26
61697;BME280;47610;52.252;20.922;2023-05-11T00:46:36;100780.83;;;10.48;47.26
61697;BME280;47610;52.252;20.922;2023-05-11T00:51:39;100778.15;;;10.44;47.13
61697;BME280;47610;52.252;20.922;2023-05-11T00:56:43;100777.30;;;10.39;47.07
61697;BME280;47610;52.252;20.922;2023-05-11T01:01:46;100771.00;;;10.36;47.13
61697;BME280;47610;52.252;20.922;2023-05-11T01:06:54;100766.52;;;10.33;47.26
61697;BME280;47610;52.252;20.922;2023-05-11T01:12:09;100764.56;;;10.30;47.33
61697;BME280;47610;52.252;20.922;2023-05-11T01:17:20;100760.45;;;10.27;46.96
61697;BME280;47610;52.252;20.922;2023-05-11T01:22:36;100762.36;;;10.26;46.70
61697;BME280;47610;52.252;20.922;2023-05-11T01:28:12;100763.12;;;10.23;46.83
61697;BME280;47610;52.252;20.922;2023-05-11T01:33:23;100758.95;;;10.19;46.88
61697;BME280;47610;52.252;20.922;2023-05-11T01:38:31;100757.44;;;10.14;47.15
61697;BME280;47610;52.252;20.922;2023-05-11T01:43:36;100753.74;;;10.11;46.92
61697;BME280;47610;52.252;20.922;2023-05-11T01:48:45;100755.76;;;10.10;46.88
61697;BME280;47610;52.252;20.922;2023-05-11T01:53:50;100753.20;;;10.08;46.88
61697;BME280;47610;52.252;20.922;2023-05-11T01:58:54;100754.73;;;10.06;46.76
61697;BME280;47610;52.252;20.922;2023-05-11T02:03:59;100756.87;;;10.05;46.86
61697;BME280;47610;52.252;20.922;2023-05-11T02:09:05;100757.89;;;10.02;46.83
61697;BME280;47610;52.252;20.922;2023-05-11T02:14:10;100760.36;;;10.00;46.62
61697;BME280;47610;52.252;20.922;2023-05-11T02:19:14;100758.80;;;9.99;46.72
61697;BME280;47610;52.252;20.922;2023-05-11T02:24:19;100759.77;;;9.96;46.95
61697;BME280;47610;52.252;20.922;2023-05-11T02:29:23;100761.14;;;9.95;46.97
61697;BME280;47610;52.252;20.922;2023-05-11T02:34:28;100760.19;;;9.93;46.93
61697;BME280;47610;52.252;20.922;2023-05-11T02:39:35;100761.59;;;9.92;46.91
61697;BME280;47610;52.252;20.922;2023-05-11T02:44:44;100760.00;;;9.92;46.54
61697;BME280;47610;52.252;20.922;2023-05-11T02:49:51;100766.01;;;9.93;46.31
61697;BME280;47610;52.252;20.922;2023-05-11T02:55:00;100763.94;;;9.94;46.04
61697;BME280;47610;52.252;20.922;2023-05-11T03:00:05;100767.04;;;9.98;46.11
61697;BME280;47610;52.252;20.922;2023-05-11T03:05:07;100773.96;;;10.02;46.81
61697;BME280;47610;52.252;20.922;2023-05-11T03:10:11;100771.31;;;10.01;47.71
61697;BME280;47610;52.252;20.922;2023-05-11T03:15:15;100770.57;;;9.93;48.97
61697;BME280;47610;52.252;20.922;2023-05-11T03:20:21;100773.47;;;9.90;50.20
61697;BME280;47610;52.252;20.922;2023-05-11T03:25:25;100777.36;;;10.38;50.36
61697;BME280;47610;52.252;20.922;2023-05-11T03:30:29;100778.66;;;11.25;48.91
61697;BME280;47610;52.252;20.922;2023-05-11T03:35:34;100785.95;;;11.65;46.84
61697;BME280;47610;52.252;20.922;2023-05-11T03:40:39;100784.50;;;11.39;45.73
61697;BME280;47610;52.252;20.922;2023-05-11T03:45:44;100793.13;;;11.11;46.32
61697;BME280;47610;52.252;20.922;2023-05-11T03:50:49;100796.08;;;10.96;47.06
61697;BME280;47610;52.252;20.922;2023-05-11T03:55:52;100800.14;;;10.94;47.66
61697;BME280;47610;52.252;20.922;2023-05-11T04:00:56;100801.54;;;11.41;47.79
61697;BME280;47610;52.252;20.922;2023-05-11T04:05:59;100809.07;;;13.35;45.62
61697;BME280;47610;52.252;20.922;2023-05-11T04:11:02;100810.73;;;15.04;41.01
61697;BME280;47610;52.252;20.922;2023-05-11T04:16:06;100814.66;;;17.35;36.92
61697;BME280;47610;52.252;20.922;2023-05-11T04:21:09;100816.94;;;19.92;31.32
61697;BME280;47610;52.252;20.922;2023-05-11T04:26:13;100821.77;;;21.81;26.90
61697;BME280;47610;52.252;20.922;2023-05-11T04:31:16;100825.66;;;23.87;24.25
61697;BME280;47610;52.252;20.922;2023-05-11T04:36:20;100827.38;;;25.27;21.73
61697;BME280;47610;52.252;20.922;2023-05-11T04:41:23;100834.34;;;26.58;20.29
61697;BME280;47610;52.252;20.922;2023-05-11T04:46:26;100833.50;;;27.87;19.47
61697;BME280;47610;52.252;20.922;2023-05-11T04:51:29;100841.15;;;29.64;18.42
61697;BME280;47610;52.252;20.922;2023-05-11T04:56:32;100848.57;;;30.87;16.57
61697;BME280;47610;52.252;20.922;2023-05-11T05:01:36;100847.80;;;31.32;15.82
61697;BME280;47610;52.252;20.922;2023-05-11T05:06:39;100850.92;;;31.83;15.21
61697;BME280;47610;52.252;20.922;2023-05-11T05:11:42;100849.92;;;32.23;14.84
61697;BME280;47610;52.252;20.922;2023-05-11T05:16:45;100855.98;;;31.43;15.18
61697;BME280;47610;52.252;20.922;2023-05-11T05:21:49;100859.74;;;30.59;15.19
61697;BME280;47610;52.252;20.922;2023-05-11T05:26:52;100853.48;;;27.57;15.98
61697;BME280;47610;52.252;20.922;2023-05-11T05:31:55;100849.00;;;24.08;18.24
61697;BME280;47610;52.252;20.922;2023-05-11T05:36:58;100846.35;;;22.29;20.07
61697;BME280;47610;52.252;20.922;2023-05-11T05:42:01;100846.11;;;20.81;21.40
61697;BME280;47610;52.252;20.922;2023-05-11T05:47:05;100849.73;;;20.40;22.50
61697;BME280;47610;52.252;20.922;2023-05-11T05:52:09;100847.89;;;20.28;23.03
61697;BME280;47610;52.252;20.922;2023-05-11T05:57:12;100852.42;;;20.90;22.79
61697;BME280;47610;52.252;20.922;2023-05-11T06:02:16;100851.29;;;20.24;23.25
61697;BME280;47610;52.252;20.922;2023-05-11T06:07:19;100849.67;;;20.20;23.23
61697;BME280;47610;52.252;20.922;2023-05-11T06:12:22;100851.75;;;19.43;24.14
61697;BME280;47610;52.252;20.922;2023-05-11T06:17:25;100851.06;;;19.43;24.55
61697;BME280;47610;52.252;20.922;2023-05-11T06:22:35;100860.30;;;20.37;23.95
61697;BME280;47610;52.252;20.922;2023-05-11T06:27:38;100861.42;;;21.41;23.04
61697;BME280;47610;52.252;20.922;2023-05-11T06:32:41;100863.44;;;20.63;23.56
61697;BME280;47610;52.252;20.922;2023-05-11T06:37:44;100867.20;;;21.03;23.43
61697;BME280;47610;52.252;20.922;2023-05-11T06:42:47;100862.81;;;20.54;23.62
61697;BME280;47610;52.252;20.922;2023-05-11T06:47:51;100864.90;;;20.33;24.48
61697;BME280;47610;52.252;20.922;2023-05-11T06:52:54;100868.92;;;21.62;23.20
61697;BME280;47610;52.252;20.922;2023-05-11T06:57:57;100872.91;;;22.22;22.55
61697;BME280;47610;52.252;20.922;2023-05-11T07:03:00;100867.61;;;21.63;22.16
61697;BME280;47610;52.252;20.922;2023-05-11T07:08:04;100871.81;;;21.16;22.82
61697;BME280;47610;52.252;20.922;2023-05-11T07:13:07;100875.45;;;20.67;22.71
61697;BME280;47610;52.252;20.922;2023-05-11T07:18:10;100871.36;;;21.78;22.14
61697;BME280;47610;52.252;20.922;2023-05-11T07:23:14;100868.46;;;22.74;20.72
61697;BME280;47610;52.252;20.922;2023-05-11T07:28:17;100866.02;;;21.47;21.24
61697;BME280;47610;52.252;20.922;2023-05-11T07:33:20;100856.70;;;20.84;20.87
61697;BME280;47610;52.252;20.922;2023-05-11T07:38:23;100855.72;;;21.08;20.91
61697;BME280;47610;52.252;20.922;2023-05-11T07:43:26;100858.09;;;21.55;20.74
61697;BME280;47610;52.252;20.922;2023-05-11T07:48:30;100867.90;;;21.64;20.42
61697;BME280;47610;52.252;20.922;2023-05-11T07:53:33;100860.51;;;21.47;20.50
61697;BME280;47610;52.252;20.922;2023-05-11T07:58:36;100852.25;;;22.10;20.44
61697;BME280;47610;52.252;20.922;2023-05-11T08:03:39;100850.38;;;22.79;20.14
61697;BME280;47610;52.252;20.922;2023-05-11T08:08:43;100861.83;;;23.15;19.12
61697;BME280;47610;52.252;20.922;2023-05-11T08:13:46;100855.11;;;22.84;19.38
61697;BME280;47610;52.252;20.922;2023-05-11T08:18:49;100850.11;;;23.02;19.34
61697;BME280;47610;52.252;20.922;2023-05-11T08:23:52;100859.76;;;24.88;17.62
61697;BME280;47610;52.252;20.922;2023-05-11T08:28:57;100852.91;;;26.23;16.86
61697;BME280;47610;52.252;20.922;2023-05-11T08:34:01;100847.16;;;27.40;16.78
61697;BME280;47610;52.252;20.922;2023-05-11T08:39:04;100847.73;;;28.24;15.53
61697;BME280;47610;52.252;20.922;2023-05-11T08:44:08;100853.30;;;28.93;14.91
61697;BME280;47610;52.252;20.922;2023-05-11T08:49:13;100852.55;;;29.42;14.43
61697;BME280;47610;52.252;20.922;2023-05-11T08:54:17;100848.98;;;29.86;13.82
61697;BME280;47610;52.252;20.922;2023-05-11T08:59:20;100847.70;;;30.06;13.66
61697;BME280;47610;52.252;20.922;2023-05-11T09:04:24;100849.45;;;30.28;13.58
61697;BME280;47610;52.252;20.922;2023-05-11T09:09:28;100846.98;;;30.07;13.32
61697;BME280;47610;52.252;20.922;2023-05-11T09:14:31;100850.73;;;30.27;13.54
61697;BME280;47610;52.252;20.922;2023-05-11T09:19:33;100853.92;;;30.18;13.40
61697;BME280;47610;52.252;20.922;2023-05-11T09:24:42;100856.32;;;29.71;13.39
61697;BME280;47610;52.252;20.922;2023-05-11T09:29:45;100842.77;;;29.25;13.93
61697;BME280;47610;52.252;20.922;2023-05-11T09:34:48;100839.16;;;28.97;13.72
61697;BME280;47610;52.252;20.922;2023-05-11T09:39:54;100830.54;;;28.99;14.29
61697;BME280;47610;52.252;20.922;2023-05-11T09:44:57;100838.61;;;29.06;14.23
61697;BME280;47610;52.252;20.922;2023-05-11T09:50:00;100824.80;;;28.61;14.46
61697;BME280;47610;52.252;20.922;2023-05-11T09:55:17;100826.80;;;27.40;15.13
61697;BME280;47610;52.252;20.922;2023-05-11T10:00:20;100816.41;;;25.56;16.47
61697;BME280;47610;52.252;20.922;2023-05-11T10:05:23;100811.71;;;24.16;18.01
61697;BME280;47610;52.252;20.922;2023-05-11T10:10:28;100796.12;;;23.11;18.54
61697;BME280;47610;52.252;20.922;2023-05-11T10:15:32;100808.73;;;21.99;19.59
61697;BME280;47610;52.252;20.922;2023-05-11T10:20:36;100783.52;;;21.42;20.39
61697;BME280;47610;52.252;20.922;2023-05-11T10:25:40;100782.58;;;21.42;21.22
61697;BME280;47610;52.252;20.922;2023-05-11T10:30:44;100787.76;;;21.31;20.94
61697;BME280;47610;52.252;20.922;2023-05-11T10:35:48;100787.58;;;20.97;21.11
61697;BME280;47610;52.252;20.922;2023-05-11T10:40:51;100780.80;;;20.52;21.70
61697;BME280;47610;52.252;20.922;2023-05-11T10:46:04;100778.98;;;20.23;21.91
61697;BME280;47610;52.252;20.922;2023-05-11T10:51:30;100767.79;;;20.01;22.00
61697;BME280;47610;52.252;20.922;2023-05-11T10:56:55;100771.84;;;19.94;22.40
61697;BME280;47610;52.252;20.922;2023-05-11T11:02:02;100759.25;;;19.92;22.15
61697;BME280;47610;52.252;20.922;2023-05-11T11:07:06;100761.93;;;19.85;22.44
61697;BME280;47610;52.252;20.922;2023-05-11T11:12:11;100744.73;;;19.75;22.88
61697;BME280;47610;52.252;20.922;2023-05-11T11:17:24;100747.65;;;19.74;23.07
61697;BME280;47610;52.252;20.922;2023-05-11T11:22:43;100748.67;;;19.76;22.98
61697;BME280;47610;52.252;20.922;2023-05-11T11:27:57;100748.55;;;19.74;23.19
61697;BME280;47610;52.252;20.922;2023-05-11T11:38:30;100753.68;;;19.50;23.47
61697;BME280;47610;52.252;20.922;2023-05-11T11:43:44;100749.73;;;19.38;23.31
61697;BME280;47610;52.252;20.922;2023-05-11T11:48:48;100752.20;;;19.21;23.64
61697;BME280;47610;52.252;20.922;2023-05-11T11:54:00;100745.83;;;19.09;23.65
61697;BME280;47610;52.252;20.922;2023-05-11T11:59:03;100742.32;;;18.95;24.08
61697;BME280;47610;52.252;20.922;2023-05-11T12:04:24;100742.69;;;18.87;24.60
61697;BME280;47610;52.252;20.922;2023-05-11T12:09:29;100750.40;;;18.76;24.51
61697;BME280;47610;52.252;20.922;2023-05-11T12:14:33;100748.94;;;18.68;24.78
61697;BME280;47610;52.252;20.922;2023-05-11T12:19:36;100746.98;;;18.61;24.58
61697;BME280;47610;52.252;20.922;2023-05-11T12:24:40;100742.90;;;18.54;24.99
61697;BME280;47610;52.252;20.922;2023-05-11T12:29:43;100733.80;;;18.55;25.08
61697;BME280;47610;52.252;20.922;2023-05-11T12:34:59;100733.67;;;18.59;25.47
61697;BME280;47610;52.252;20.922;2023-05-11T12:40:02;100727.51;;;18.49;25.73
61697;BME280;47610;52.252;20.922;2023-05-11T12:45:07;100722.46;;;18.60;25.91
61697;BME280;47610;52.252;20.922;2023-05-11T12:50:11;100720.97;;;18.75;26.08
61697;BME280;47610;52.252;20.922;2023-05-11T12:55:17;100719.20;;;18.81;26.14
61697;BME280;47610;52.252;20.922;2023-05-11T13:00:27;100709.63;;;18.77;26.15
61697;BME280;47610;52.252;20.922;2023-05-11T13:05:31;100697.05;;;18.71;26.23
61697;BME280;47610;52.252;20.922;2023-05-11T13:10:34;100702.52;;;18.60;26.33
61697;BME280;47610;52.252;20.922;2023-05-11T13:15:49;100705.56;;;18.56;26.75
61697;BME280;47610;52.252;20.922;2023-05-11T13:21:07;100700.70;;;18.53;26.59
61697;BME280;47610;52.252;20.922;2023-05-11T13:26:10;100692.58;;;18.50;26.89
61697;BME280;47610;52.252;20.922;2023-05-11T13:31:14;100687.64;;;18.55;27.18
61697;BME280;47610;52.252;20.922;2023-05-11T13:36:17;100680.33;;;18.53;26.94
61697;BME280;47610;52.252;20.922;2023-05-11T13:41:20;100684.08;;;18.46;27.39
61697;BME280;47610;52.252;20.922;2023-05-11T13:46:23;100682.05;;;18.47;27.28
61697;BME280;47610;52.252;20.922;2023-05-11T13:51:27;100681.44;;;18.43;27.00
61697;BME280;47610;52.252;20.922;2023-05-11T13:56:31;100679.52;;;18.38;26.88
61697;BME280;47610;52.252;20.922;2023-05-11T14:01:33;100679.20;;;18.37;26.75
61697;BME280;47610;52.252;20.922;2023-05-11T14:06:36;100672.78;;;18.36;26.94
61697;BME280;47610;52.252;20.922;2023-05-11T14:11:39;100671.11;;;18.36;27.45
61697;BME280;47610;52.252;20.922;2023-05-11T14:16:42;100683.83;;;18.35;27.47
61697;BME280;47610;52.252;20.922;2023-05-11T14:21:46;100674.86;;;18.25;27.05
61697;BME280;47610;52.252;20.922;2023-05-11T14:26:49;100674.95;;;18.15;27.53
61697;BME280;47610;52.252;20.922;2023-05-11T14:31:52;100664.31;;;18.13;28.01
61697;BME280;47610;52.252;20.922;2023-05-11T14:36:57;100662.48;;;18.12;28.34
61697;BME280;47610;52.252;20.922;2023-05-11T14:42:00;100662.73;;;18.12;28.52
61697;BME280;47610;52.252;20.922;2023-05-11T14:47:04;100668.17;;;18.13;28.88
61697;BME280;47610;52.252;20.922;2023-05-11T14:52:07;100665.95;;;18.13;29.00
61697;BME280;47610;52.252;20.922;2023-05-11T14:57:11;100669.48;;;18.12;28.83
61697;BME280;47610;52.252;20.922;2023-05-11T15:02:14;100666.82;;;18.11;28.69
61697;BME280;47610;52.252;20.922;2023-05-11T15:07:17;100663.02;;;18.10;28.60
61697;BME280;47610;52.252;20.922;2023-05-11T15:12:20;100665.13;;;18.08;28.81
61697;BME280;47610;52.252;20.922;2023-05-11T15:17:24;100667.41;;;18.06;28.59
61697;BME280;47610;52.252;20.922;2023-05-11T15:22:28;100664.63;;;18.01;28.93
61697;BME280;47610;52.252;20.922;2023-05-11T15:27:32;100662.02;;;17.96;28.79
61697;BME280;47610;52.252;20.922;2023-05-11T15:32:36;100661.37;;;17.92;28.75
61697;BME280;47610;52.252;20.922;2023-05-11T15:37:39;100658.55;;;17.85;28.60
61697;BME280;47610;52.252;20.922;2023-05-11T15:42:42;100661.94;;;17.80;28.49
61697;BME280;47610;52.252;20.922;2023-05-11T15:47:45;100662.15;;;17.78;28.81
61697;BME280;47610;52.252;20.922;2023-05-11T15:52:48;100667.50;;;17.77;28.94
61697;BME280;47610;52.252;20.922;2023-05-11T15:57:52;100672.80;;;17.74;29.06
61697;BME280;47610;52.252;20.922;2023-05-11T16:02:55;100671.25;;;17.70;29.15
61697;BME280;47610;52.252;20.922;2023-05-11T16:07:59;100675.39;;;17.67;29.00
61697;BME280;47610;52.252;20.922;2023-05-11T16:13:02;100675.26;;;17.63;28.84
61697;BME280;47610;52.252;20.922;2023-05-11T16:18:08;100667.34;;;17.59;29.10
61697;BME280;47610;52.252;20.922;2023-05-11T16:23:12;100666.36;;;17.55;28.90
61697;BME280;47610;52.252;20.922;2023-05-11T16:28:15;100666.73;;;17.54;29.12
61697;BME280;47610;52.252;20.922;2023-05-11T16:33:19;100671.33;;;17.55;29.22
61697;BME280;47610;52.252;20.922;2023-05-11T16:38:22;100672.02;;;17.57;29.07
61697;BME280;47610;52.252;20.922;2023-05-11T16:43:25;100672.05;;;17.59;29.39
61697;BME280;47610;52.252;20.922;2023-05-11T16:48:28;100670.09;;;17.60;29.56
61697;BME280;47610;52.252;20.922;2023-05-11T16:53:31;100668.73;;;17.58;29.49
61697;BME280;47610;52.252;20.922;2023-05-11T16:58:35;100671.22;;;17.57;29.73
61697;BME280;47610;52.252;20.922;2023-05-11T17:03:38;100672.33;;;17.55;29.47
61697;BME280;47610;52.252;20.922;2023-05-11T17:08:41;100679.94;;;17.51;29.24
61697;BME280;47610;52.252;20.922;2023-05-11T17:13:44;100674.98;;;17.46;29.13
61697;BME280;47610;52.252;20.922;2023-05-11T17:18:47;100683.24;;;17.43;29.41
61697;BME280;47610;52.252;20.922;2023-05-11T17:23:51;100681.88;;;17.40;29.58
61697;BME280;47610;52.252;20.922;2023-05-11T17:28:54;100680.05;;;17.34;29.44
61697;BME280;47610;52.252;20.922;2023-05-11T17:33:57;100681.17;;;17.29;29.62
61697;BME280;47610;52.252;20.922;2023-05-11T17:39:00;100687.23;;;17.24;29.85
61697;BME280;47610;52.252;20.922;2023-05-11T17:44:04;100691.63;;;17.17;29.88
61697;BME280;47610;52.252;20.922;2023-05-11T17:49:07;100695.55;;;17.09;29.71
61697;BME280;47610;52.252;20.922;2023-05-11T17:54:11;100700.61;;;17.03;29.99
61697;BME280;47610;52.252;20.922;2023-05-11T17:59:14;100707.67;;;16.96;29.99
61697;BME280;47610;52.252;20.922;2023-05-11T18:04:17;100709.77;;;16.88;30.21
61697;BME280;47610;52.252;20.922;2023-05-11T18:09:20;100710.12;;;16.79;30.02
61697;BME280;47610;52.252;20.922;2023-05-11T18:14:23;100715.03;;;16.72;30.11
61697;BME280;47610;52.252;20.922;2023-05-11T18:19:27;100720.71;;;16.66;30.12
61697;BME280;47610;52.252;20.922;2023-05-11T18:24:30;100723.63;;;16.59;30.39
61697;BME280;47610;52.252;20.922;2023-05-11T18:29:33;100728.62;;;16.50;30.60
61697;BME280;47610;52.252;20.922;2023-05-11T18:34:37;100730.41;;;16.44;30.90
61697;BME280;47610;52.252;20.922;2023-05-11T18:39:42;100739.39;;;16.37;31.18
61697;BME280;47610;52.252;20.922;2023-05-11T18:44:47;100740.92;;;16.28;31.61
61697;BME280;47610;52.252;20.922;2023-05-11T18:49:50;100743.30;;;16.16;32.09
61697;BME280;47610;52.252;20.922;2023-05-11T18:54:53;100746.52;;;16.03;32.62
61697;BME280;47610;52.252;20.922;2023-05-11T18:59:57;100751.67;;;15.90;33.03
61697;BME280;47610;52.252;20.922;2023-05-11T19:05:00;100751.60;;;15.77;33.46
61697;BME280;47610;52.252;20.922;2023-05-11T19:10:06;100755.27;;;15.64;34.18
61697;BME280;47610;52.252;20.922;2023-05-11T19:15:11;100759.57;;;15.51;34.85
61697;BME280;47610;52.252;20.922;2023-05-11T19:20:15;100763.28;;;15.43;35.55
61697;BME280;47610;52.252;20.922;2023-05-11T19:25:18;100772.78;;;15.38;36.13
61697;BME280;47610;52.252;20.922;2023-05-11T19:30:21;100774.49;;;15.35;36.95
61697;BME280;47610;52.252;20.922;2023-05-11T19:35:25;100773.91;;;15.33;37.30
61697;BME280;47610;52.252;20.922;2023-05-11T19:40:28;100780.09;;;15.27;37.72
61697;BME280;47610;52.252;20.922;2023-05-11T19:45:33;100783.45;;;15.19;38.20
61697;BME280;47610;52.252;20.922;2023-05-11T19:50:37;100780.41;;;15.09;38.67
61697;BME280;47610;52.252;20.922;2023-05-11T19:55:41;100782.84;;;14.97;39.20
61697;BME280;47610;52.252;20.922;2023-05-11T20:00:44;100782.03;;;14.86;39.81
61697;BME280;47610;52.252;20.922;2023-05-11T20:05:48;100785.41;;;14.76;40.05
61697;BME280;47610;52.252;20.922;2023-05-11T20:10:52;100790.55;;;14.72;40.38
61697;BME280;47610;52.252;20.922;2023-05-11T20:15:55;100789.16;;;14.68;40.39
61697;BME280;47610;52.252;20.922;2023-05-11T20:20:59;100794.27;;;14.67;40.34
61697;BME280;47610;52.252;20.922;2023-05-11T20:26:02;100791.94;;;14.68;39.99
61697;BME280;47610;52.252;20.922;2023-05-11T20:31:06;100793.84;;;14.65;39.94
61697;BME280;47610;52.252;20.922;2023-05-11T20:36:09;100799.89;;;14.65;39.91
61697;BME280;47610;52.252;20.922;2023-05-11T20:41:13;100800.94;;;14.65;40.01
61697;BME280;47610;52.252;20.922;2023-05-11T20:46:16;100802.84;;;14.64;40.20
61697;BME280;47610;52.252;20.922;2023-05-11T20:51:19;100801.46;;;14.62;40.52
61697;BME280;47610;52.252;20.922;2023-05-11T20:56:22;100803.20;;;14.61;40.70
61697;BME280;47610;52.252;20.922;2023-05-11T21:01:26;100805.89;;;14.58;40.94
61697;BME280;47610;52.252;20.922;2023-05-11T21:06:29;100808.57;;;14.56;41.28
61697;BME280;47610;52.252;20.922;2023-05-11T21:11:32;100812.02;;;14.53;41.33
61697;BME280;47610;52.252;20.922;2023-05-11T21:16:35;100817.69;;;14.48;41.59
61697;BME280;47610;52.252;20.922;2023-05-11T21:21:38;100821.67;;;14.43;41.72
61697;BME280;47610;52.252;20.922;2023-05-11T21:26:42;100822.44;;;14.37;41.89
61697;BME280;47610;52.252;20.922;2023-05-11T21:31:45;100830.91;;;14.31;41.85
61697;BME280;47610;52.252;20.922;2023-05-11T21:36:48;100829.13;;;14.25;42.17
61697;BME280;47610;52.252;20.922;2023-05-11T21:41:51;100832.73;;;14.18;42.55
61697;BME280;47610;52.252;20.922;2023-05-11T21:46:55;100833.41;;;14.10;42.77
61697;BME280;47610;52.252;20.922;2023-05-11T21:51:58;100839.83;;;14.03;42.96
61697;BME280;47610;52.252;20.922;2023-05-11T21:57:01;100841.23;;;13.97;43.37
61697;BME280;47610;52.252;20.922;2023-05-11T22:02:05;100842.34;;;13.89;43.89
61697;BME280;47610;52.252;20.922;2023-05-11T22:07:08;100846.59;;;13.83;44.23
61697;BME280;47610;52.252;20.922;2023-05-11T22:12:11;100848.35;;;13.77;44.56
61697;BME280;47610;52.252;20.922;2023-05-11T22:17:15;100853.38;;;13.68;45.03
61697;BME280;47610;52.252;20.922;2023-05-11T22:22:18;100852.98;;;13.58;45.36
61697;BME280;47610;52.252;20.922;2023-05-11T22:27:21;100860.37;;;13.50;45.71
61697;BME280;47610;52.252;20.922;2023-05-11T22:32:25;100865.33;;;13.44;46.13
61697;BME280;47610;52.252;20.922;2023-05-11T22:37:29;100871.77;;;13.38;46.78
61697;BME280;47610;52.252;20.922;2023-05-11T22:42:32;100874.95;;;13.28;47.43
61697;BME280;47610;52.252;20.922;2023-05-11T22:47:36;100872.08;;;13.20;47.95
61697;BME280;47610;52.252;20.922;2023-05-11T22:52:39;100874.96;;;13.13;48.52
61697;BME280;47610;52.252;20.922;2023-05-11T22:57:42;100877.31;;;13.07;48.74
61697;BME280;47610;52.252;20.922;2023-05-11T23:02:45;100879.59;;;13.03;49.05
61697;BME280;47610;52.252;20.922;2023-05-11T23:07:48;100876.13;;;12.96;49.66
61697;BME280;47610;52.252;20.922;2023-05-11T23:12:52;100877.25;;;12.87;50.25
61697;BME280;47610;52.252;20.922;2023-05-11T23:17:55;100869.67;;;12.79;50.51
61697;BME280;47610;52.252;20.922;2023-05-11T23:22:58;100871.23;;;12.74;51.17
61697;BME280;47610;52.252;20.922;2023-05-11T23:28:01;100872.40;;;12.67;51.66
61697;BME280;47610;52.252;20.922;2023-05-11T23:33:04;100867.98;;;12.62;51.74
61697;BME280;47610;52.252;20.922;2023-05-11T23:38:08;100865.23;;;12.58;51.51
61697;BME280;47610;52.252;20.922;2023-05-11T23:43:11;100864.13;;;12.54;51.68
61697;BME280;47610;52.252;20.922;2023-05-11T23:48:14;100863.35;;;12.50;51.78
61697;BME280;47610;52.252;20.922;2023-05-11T23:53:17;100870.48;;;12.46;51.75
61697;BME280;47610;52.252;20.922;2023-05-11T23:58:20;100871.98;;;12.43;51.56
